sensor_id;sensor_type;location;lat;lon;timestamp;pressure;altitude;pressure_sealevel;temperature;humidity
62978;BME280;49073;42.352;23.808;2023-04-19T00:02:02;94261.53;;;8.80;99.02
62978;BME280;49073;42.352;23.808;2023-04-19T00:05:05;94258.25;;;8.87;98.72
62978;BME280;49073;42.352;23.808;2023-04-19T00:08:06;94255.88;;;8.82;98.47
62978;BME280;49073;42.352;23.808;2023-04-19T00:11:07;94265.06;;;8.84;99.02
62978;BME280;49073;42.352;23.808;2023-04-19T00:14:08;94262.59;;;8.76;100.00
62978;BME280;49073;42.352;23.808;2023-04-19T00:17:08;94255.63;;;8.67;100.00
62978;BME280;49073;42.352;23.808;2023-04-19T00:20:10;94255.13;;;8.62;100.00
62978;BME280;49073;42.352;23.808;2023-04-19T00:23:12;94253.25;;;8.62;100.00
62978;BME280;49073;42.352;23.808;2023-04-19T00:26:12;94245.47;;;8.73;100.00
62978;BME280;49073;42.352;23.808;2023-04-19T00:29:14;94242.88;;;8.77;100.00
62978;BME280;49073;42.352;23.808;2023-04-19T00:32:15;94240.69;;;8.82;100.00
62978;BME280;49073;42.352;23.808;2023-04-19T00:35:16;94243.81;;;8.84;100.00
62978;BME280;49073;42.352;23.808;2023-04-19T00:38:16;94237.28;;;8.82;100.00
62978;BME280;49073;42.352;23.808;2023-04-19T00:41:17;94236.03;;;8.76;100.00
62978;BME280;49073;42.352;23.808;2023-04-19T00:44:17;94235.97;;;8.72;100.00
62978;BME280;49073;42.352;23.808;2023-04-19T00:47:19;94233.13;;;8.61;100.00
62978;BME280;49073;42.352;23.808;2023-04-19T00:50:20;94232.31;;;8.80;100.00
62978;BME280;49073;42.352;23.808;2023-04-19T00:53:21;94243.38;;;8.63;100.00
62978;BME280;49073;42.352;23.808;2023-04-19T00:56:21;94238.16;;;8.66;100.00
62978;BME280;49073;42.352;23.808;2023-04-19T00:59:23;94235.09;;;8.64;100.00
62978;BME280;49073;42.352;23.808;2023-04-19T01:02:24;94234.56;;;8.78;100.00
62978;BME280;49073;42.352;23.808;2023-04-19T01:05:25;94235.13;;;8.68;100.00
62978;BME280;49073;42.352;23.808;2023-04-19T01:08:26;94223.38;;;8.69;100.00
62978;BME280;49073;42.352;23.808;2023-04-19T01:11:27;94233.03;;;8.77;100.00
62978;BME280;49073;42.352;23.808;2023-04-19T01:14:28;94231.16;;;8.78;100.00
62978;BME280;49073;42.352;23.808;2023-04-19T01:17:30;94232.25;;;8.77;100.00
62978;BME280;49073;42.352;23.808;2023-04-19T01:20:32;94215.78;;;8.67;100.00
62978;BME280;49073;42.352;23.808;2023-04-19T01:23:32;94222.84;;;8.59;100.00
62978;BME280;49073;42.352;23.808;2023-04-19T01:26:33;94221.94;;;8.71;100.00
62978;BME280;49073;42.352;23.808;2023-04-19T01:29:33;94222.22;;;8.66;100.00
62978;BME280;49073;42.352;23.808;2023-04-19T01:32:34;94222.28;;;8.70;100.00
62978;BME280;49073;42.352;23.808;2023-04-19T01:35:34;94216.94;;;8.70;100.00
62978;BME280;49073;42.352;23.808;2023-04-19T01:38:35;94214.00;;;8.75;100.00
62978;BME280;49073;42.352;23.808;2023-04-19T01:41:35;94216.94;;;8.70;100.00
62978;BME280;49073;42.352;23.808;2023-04-19T01:44:36;94211.19;;;8.64;100.00
62978;BME280;49073;42.352;23.808;2023-04-19T01:47:36;94216.19;;;8.69;100.00
62978;BME280;49073;42.352;23.808;2023-04-19T01:50:37;94212.63;;;8.62;100.00
62978;BME280;49073;42.352;23.808;2023-04-19T01:53:38;94215.50;;;8.72;100.00
62978;BME280;49073;42.352;23.808;2023-04-19T01:56:40;94209.97;;;8.62;100.00
62978;BME280;49073;42.352;23.808;2023-04-19T01:59:40;94211.94;;;8.65;100.00
62978;BME280;49073;42.352;23.808;2023-04-19T02:02:41;94201.97;;;8.58;99.96
62978;BME280;49073;42.352;23.808;2023-04-19T02:05:41;94206.22;;;8.63;100.00
62978;BME280;49073;42.352;23.808;2023-04-19T02:08:42;94209.50;;;8.56;100.00
62978;BME280;49073;42.352;23.808;2023-04-19T02:11:42;94210.25;;;8.37;100.00
62978;BME280;49073;42.352;23.808;2023-04-19T02:14:43;94219.97;;;8.29;100.00
62978;BME280;49073;42.352;23.808;2023-04-19T02:17:44;94214.72;;;8.13;100.00
62978;BME280;49073;42.352;23.808;2023-04-19T02:20:46;94205.78;;;8.21;100.00
62978;BME280;49073;42.352;23.808;2023-04-19T02:23:46;94201.03;;;8.11;100.00
62978;BME280;49073;42.352;23.808;2023-04-19T02:26:47;94197.63;;;8.10;100.00
62978;BME280;49073;42.352;23.808;2023-04-19T02:29:47;94200.19;;;8.07;100.00
62978;BME280;49073;42.352;23.808;2023-04-19T02:32:48;94202.09;;;8.06;100.00
62978;BME280;49073;42.352;23.808;2023-04-19T02:35:49;94191.38;;;8.03;100.00
62978;BME280;49073;42.352;23.808;2023-04-19T02:38:49;94197.63;;;8.10;100.00
62978;BME280;49073;42.352;23.808;2023-04-19T02:41:50;94191.66;;;8.17;100.00
62978;BME280;49073;42.352;23.808;2023-04-19T02:44:50;94191.19;;;8.31;100.00
62978;BME280;49073;42.352;23.808;2023-04-19T02:47:51;94197.31;;;8.35;100.00
62978;BME280;49073;42.352;23.808;2023-04-19T02:50:51;94189.78;;;8.37;100.00
62978;BME280;49073;42.352;23.808;2023-04-19T02:53:52;94193.41;;;8.29;100.00
62978;BME280;49073;42.352;23.808;2023-04-19T02:56:52;94189.06;;;8.40;99.88
62978;BME280;49073;42.352;23.808;2023-04-19T02:59:53;94189.78;;;8.37;99.30
62978;BME280;49073;42.352;23.808;2023-04-19T03:02:54;94194.38;;;8.40;99.29
62978;BME280;49073;42.352;23.808;2023-04-19T03:05:55;94191.25;;;8.35;98.60
62978;BME280;49073;42.352;23.808;2023-04-19T03:08:56;94189.84;;;8.41;98.56
62978;BME280;49073;42.352;23.808;2023-04-19T03:11:57;94195.44;;;8.36;98.91
62978;BME280;49073;42.352;23.808;2023-04-19T03:14:57;94184.06;;;8.35;99.17
62978;BME280;49073;42.352;23.808;2023-04-19T03:17:58;94185.59;;;8.36;99.07
62978;BME280;49073;42.352;23.808;2023-04-19T03:20:59;94184.34;;;8.30;99.33
62978;BME280;49073;42.352;23.808;2023-04-19T03:24:00;94190.56;;;8.38;98.95
62978;BME280;49073;42.352;23.808;2023-04-19T03:27:02;94188.53;;;8.31;99.05
62978;BME280;49073;42.352;23.808;2023-04-19T03:30:03;94188.94;;;8.33;99.14
62978;BME280;49073;42.352;23.808;2023-04-19T03:33:03;94190.25;;;8.23;99.22
62978;BME280;49073;42.352;23.808;2023-04-19T03:36:04;94193.56;;;8.17;99.67
62978;BME280;49073;42.352;23.808;2023-04-19T03:39:06;94192.91;;;8.04;100.00
62978;BME280;49073;42.352;23.808;2023-04-19T03:42:07;94193.19;;;8.18;100.00
62978;BME280;49073;42.352;23.808;2023-04-19T03:45:08;94194.72;;;8.19;100.00
62978;BME280;49073;42.352;23.808;2023-04-19T03:48:08;94196.44;;;8.27;100.00
62978;BME280;49073;42.352;23.808;2023-04-19T03:51:09;94197.06;;;8.21;100.00
62978;BME280;49073;42.352;23.808;2023-04-19T03:54:10;94193.16;;;8.14;100.00
62978;BME280;49073;42.352;23.808;2023-04-19T03:57:11;94199.34;;;8.22;100.00
62978;BME280;49073;42.352;23.808;2023-04-19T04:00:14;94200.53;;;8.25;100.00
62978;BME280;49073;42.352;23.808;2023-04-19T04:03:15;94198.84;;;8.36;100.00
62978;BME280;49073;42.352;23.808;2023-04-19T04:06:16;94186.38;;;8.37;100.00
62978;BME280;49073;42.352;23.808;2023-04-19T04:09:16;94200.06;;;8.39;100.00
62978;BME280;49073;42.352;23.808;2023-04-19T04:12:17;94197.63;;;8.50;100.00
62978;BME280;49073;42.352;23.808;2023-04-19T04:15:17;94203.72;;;8.50;99.55
62978;BME280;49073;42.352;23.808;2023-04-19T04:18:18;94195.75;;;8.50;99.47
62978;BME280;49073;42.352;23.808;2023-04-19T04:21:19;94194.97;;;8.50;98.54
62978;BME280;49073;42.352;23.808;2023-04-19T04:24:21;94187.78;;;8.50;99.08
62978;BME280;49073;42.352;23.808;2023-04-19T04:27:21;94199.78;;;8.44;99.08
62978;BME280;49073;42.352;23.808;2023-04-19T04:30:22;94202.00;;;8.42;100.00
62978;BME280;49073;42.352;23.808;2023-04-19T04:33:27;94211.00;;;8.37;100.00
62978;BME280;49073;42.352;23.808;2023-04-19T04:36:27;94208.22;;;8.30;100.00
62978;BME280;49073;42.352;23.808;2023-04-19T04:39:29;94204.88;;;8.33;100.00
62978;BME280;49073;42.352;23.808;2023-04-19T04:42:29;94196.22;;;8.36;100.00
62978;BME280;49073;42.352;23.808;2023-04-19T04:45:30;94213.88;;;8.48;100.00
62978;BME280;49073;42.352;23.808;2023-04-19T04:48:31;94196.91;;;8.53;100.00
62978;BME280;49073;42.352;23.808;2023-04-19T04:51:32;94203.00;;;8.53;100.00
62978;BME280;49073;42.352;23.808;2023-04-19T04:54:32;94202.78;;;8.62;100.00
62978;BME280;49073;42.352;23.808;2023-04-19T04:57:32;94203.34;;;8.71;100.00
62978;BME280;49073;42.352;23.808;2023-04-19T05:00:33;94202.75;;;8.82;100.00
62978;BME280;49073;42.352;23.808;2023-04-19T05:03:33;94211.13;;;8.84;100.00
62978;BME280;49073;42.352;23.808;2023-04-19T05:06:34;94202.69;;;8.78;99.17
62978;BME280;49073;42.352;23.808;2023-04-19T05:09:35;94209.53;;;8.79;99.44
62978;BME280;49073;42.352;23.808;2023-04-19T05:12:36;94208.97;;;8.90;99.21
62978;BME280;49073;42.352;23.808;2023-04-19T05:15:37;94212.88;;;8.96;98.29
62978;BME280;49073;42.352;23.808;2023-04-19T05:18:38;94210.22;;;8.96;99.77
62978;BME280;49073;42.352;23.808;2023-04-19T05:21:38;94220.06;;;8.95;99.91
62978;BME280;49073;42.352;23.808;2023-04-19T05:24:39;94219.63;;;8.93;98.49
62978;BME280;49073;42.352;23.808;2023-04-19T05:27:39;94211.66;;;8.93;97.21
62978;BME280;49073;42.352;23.808;2023-04-19T05:30:40;94218.94;;;8.96;96.91
62978;BME280;49073;42.352;23.808;2023-04-19T05:33:40;94212.09;;;8.95;96.56
62978;BME280;49073;42.352;23.808;2023-04-19T05:36:41;94213.28;;;8.98;95.45
62978;BME280;49073;42.352;23.808;2023-04-19T05:39:43;94206.00;;;8.95;94.67
62978;BME280;49073;42.352;23.808;2023-04-19T05:42:43;94208.00;;;9.01;95.23
62978;BME280;49073;42.352;23.808;2023-04-19T05:45:44;94208.91;;;9.09;95.95
62978;BME280;49073;42.352;23.808;2023-04-19T05:48:45;94207.84;;;9.14;95.89
62978;BME280;49073;42.352;23.808;2023-04-19T05:51:45;94208.31;;;9.20;95.93
62978;BME280;49073;42.352;23.808;2023-04-19T05:54:46;94209.91;;;9.24;96.66
62978;BME280;49073;42.352;23.808;2023-04-19T05:57:46;94213.59;;;9.16;96.04
62978;BME280;49073;42.352;23.808;2023-04-19T06:00:47;94209.38;;;9.15;95.22
62978;BME280;49073;42.352;23.808;2023-04-19T06:03:48;94207.13;;;9.17;95.27
62978;BME280;49073;42.352;23.808;2023-04-19T06:06:52;94212.09;;;9.19;94.01
62978;BME280;49073;42.352;23.808;2023-04-19T06:09:52;94211.97;;;9.11;93.89
62978;BME280;49073;42.352;23.808;2023-04-19T06:12:53;94225.19;;;9.08;94.08
62978;BME280;49073;42.352;23.808;2023-04-19T06:15:54;94214.22;;;9.09;94.61
62978;BME280;49073;42.352;23.808;2023-04-19T06:18:54;94209.72;;;9.13;95.47
62978;BME280;49073;42.352;23.808;2023-04-19T06:21:55;94214.03;;;9.22;95.94
62978;BME280;49073;42.352;23.808;2023-04-19T06:24:56;94213.31;;;9.25;95.05
62978;BME280;49073;42.352;23.808;2023-04-19T06:27:56;94215.94;;;9.21;93.81
62978;BME280;49073;42.352;23.808;2023-04-19T06:30:57;94218.63;;;9.25;94.03
62978;BME280;49073;42.352;23.808;2023-04-19T06:33:58;94221.38;;;9.28;93.26
62978;BME280;49073;42.352;23.808;2023-04-19T06:36:58;94222.72;;;9.42;94.18
62978;BME280;49073;42.352;23.808;2023-04-19T06:39:59;94221.69;;;9.50;93.83
62978;BME280;49073;42.352;23.808;2023-04-19T06:43:00;94228.13;;;9.49;91.10
62978;BME280;49073;42.352;23.808;2023-04-19T06:46:01;94227.59;;;9.63;91.49
62978;BME280;49073;42.352;23.808;2023-04-19T06:49:03;94234.19;;;9.73;91.29
62978;BME280;49073;42.352;23.808;2023-04-19T06:52:04;94236.75;;;9.93;90.82
62978;BME280;49073;42.352;23.808;2023-04-19T06:55:06;94231.09;;;9.98;90.70
62978;BME280;49073;42.352;23.808;2023-04-19T06:58:06;94225.81;;;10.01;89.51
62978;BME280;49073;42.352;23.808;2023-04-19T07:01:09;94224.72;;;10.02;88.14
62978;BME280;49073;42.352;23.808;2023-04-19T07:04:11;94227.78;;;10.04;88.11
62978;BME280;49073;42.352;23.808;2023-04-19T07:07:12;94232.00;;;10.09;87.41
62978;BME280;49073;42.352;23.808;2023-04-19T07:10:13;94229.41;;;10.13;86.27
62978;BME280;49073;42.352;23.808;2023-04-19T07:13:13;94229.75;;;10.11;85.07
62978;BME280;49073;42.352;23.808;2023-04-19T07:16:14;94227.50;;;10.13;84.58
62978;BME280;49073;42.352;23.808;2023-04-19T07:19:14;94244.44;;;10.28;86.13
62978;BME280;49073;42.352;23.808;2023-04-19T07:22:18;94230.97;;;10.44;86.31
62978;BME280;49073;42.352;23.808;2023-04-19T07:25:18;94240.16;;;10.51;85.59
62978;BME280;49073;42.352;23.808;2023-04-19T07:28:19;94232.94;;;10.51;82.10
62978;BME280;49073;42.352;23.808;2023-04-19T07:31:19;94234.09;;;10.54;80.74
62978;BME280;49073;42.352;23.808;2023-04-19T07:34:20;94236.56;;;10.70;82.68
62978;BME280;49073;42.352;23.808;2023-04-19T07:37:21;94231.97;;;10.67;80.80
62978;BME280;49073;42.352;23.808;2023-04-19T07:40:21;94237.66;;;10.65;79.71
62978;BME280;49073;42.352;23.808;2023-04-19T07:43:22;94243.03;;;10.69;78.92
62978;BME280;49073;42.352;23.808;2023-04-19T07:46:22;94241.53;;;10.71;78.41
62978;BME280;49073;42.352;23.808;2023-04-19T07:49:23;94238.19;;;10.78;77.80
62978;BME280;49073;42.352;23.808;2023-04-19T07:52:23;94244.78;;;10.91;78.42
62978;BME280;49073;42.352;23.808;2023-04-19T07:55:24;94244.50;;;11.04;77.21
62978;BME280;49073;42.352;23.808;2023-04-19T07:58:24;94237.44;;;11.19;77.86
62978;BME280;49073;42.352;23.808;2023-04-19T08:01:26;94234.88;;;11.33;76.90
62978;BME280;49073;42.352;23.808;2023-04-19T08:04:26;94224.25;;;11.37;74.59
62978;BME280;49073;42.352;23.808;2023-04-19T08:07:27;94235.47;;;11.57;76.74
62978;BME280;49073;42.352;23.808;2023-04-19T08:10:29;94238.53;;;11.63;74.21
62978;BME280;49073;42.352;23.808;2023-04-19T08:13:29;94234.09;;;11.82;75.41
62978;BME280;49073;42.352;23.808;2023-04-19T08:16:30;94226.75;;;11.71;72.69
62978;BME280;49073;42.352;23.808;2023-04-19T08:19:31;94226.16;;;11.96;74.37
62978;BME280;49073;42.352;23.808;2023-04-19T08:22:31;94220.50;;;12.01;72.43
62978;BME280;49073;42.352;23.808;2023-04-19T08:25:32;94227.66;;;11.93;72.26
62978;BME280;49073;42.352;23.808;2023-04-19T08:28:32;94219.69;;;11.97;72.73
62978;BME280;49073;42.352;23.808;2023-04-19T08:31:33;94218.63;;;12.05;69.93
62978;BME280;49073;42.352;23.808;2023-04-19T08:34:34;94214.19;;;12.39;73.73
62978;BME280;49073;42.352;23.808;2023-04-19T08:37:36;94211.53;;;12.49;70.85
62978;BME280;49073;42.352;23.808;2023-04-19T08:40:49;94211.56;;;12.57;70.62
62978;BME280;49073;42.352;23.808;2023-04-19T08:43:51;94214.25;;;12.57;71.20
62978;BME280;49073;42.352;23.808;2023-04-19T08:46:53;94204.38;;;12.86;69.40
62978;BME280;49073;42.352;23.808;2023-04-19T08:49:55;94205.50;;;12.63;68.56
62978;BME280;49073;42.352;23.808;2023-04-19T08:52:58;94198.69;;;12.95;69.25
62978;BME280;49073;42.352;23.808;2023-04-19T08:56:00;94203.28;;;12.98;70.21
62978;BME280;49073;42.352;23.808;2023-04-19T08:59:02;94194.03;;;12.63;67.81
62978;BME280;49073;42.352;23.808;2023-04-19T09:02:03;94208.56;;;12.69;69.92
62978;BME280;49073;42.352;23.808;2023-04-19T09:05:04;94203.22;;;12.73;68.72
62978;BME280;49073;42.352;23.808;2023-04-19T09:08:32;94197.88;;;12.80;68.74
62978;BME280;49073;42.352;23.808;2023-04-19T09:11:36;94189.50;;;12.85;69.79
62978;BME280;49073;42.352;23.808;2023-04-19T09:14:43;94192.97;;;13.15;68.48
62978;BME280;49073;42.352;23.808;2023-04-19T09:18:02;94178.06;;;13.17;65.38
62978;BME280;49073;42.352;23.808;2023-04-19T09:21:04;94181.13;;;13.05;66.91
62978;BME280;49073;42.352;23.808;2023-04-19T09:24:05;94179.22;;;13.31;68.95
62978;BME280;49073;42.352;23.808;2023-04-19T09:27:06;94185.75;;;13.59;69.37
62978;BME280;49073;42.352;23.808;2023-04-19T09:30:07;94180.00;;;13.49;68.04
62978;BME280;49073;42.352;23.808;2023-04-19T09:33:07;94177.34;;;13.46;67.99
62978;BME280;49073;42.352;23.808;2023-04-19T09:36:08;94184.91;;;13.91;70.01
62978;BME280;49073;42.352;23.808;2023-04-19T09:39:09;94183.31;;;14.15;66.82
62978;BME280;49073;42.352;23.808;2023-04-19T09:42:10;94178.38;;;13.99;63.21
62978;BME280;49073;42.352;23.808;2023-04-19T09:45:11;94184.84;;;14.13;65.59
62978;BME280;49073;42.352;23.808;2023-04-19T09:48:12;94185.28;;;13.82;64.65
62978;BME280;49073;42.352;23.808;2023-04-19T09:51:12;94184.19;;;13.72;65.43
62978;BME280;49073;42.352;23.808;2023-04-19T09:54:15;94177.94;;;14.11;64.22
62978;BME280;49073;42.352;23.808;2023-04-19T09:57:16;94180.22;;;14.24;65.18
62978;BME280;49073;42.352;23.808;2023-04-19T10:00:18;94172.00;;;14.60;62.50
62978;BME280;49073;42.352;23.808;2023-04-19T10:03:21;94159.03;;;14.51;60.03
62978;BME280;49073;42.352;23.808;2023-04-19T10:06:27;94178.34;;;14.92;63.91
62978;BME280;49073;42.352;23.808;2023-04-19T10:09:28;94170.56;;;14.45;61.42
62978;BME280;49073;42.352;23.808;2023-04-19T10:12:30;94165.41;;;13.83;62.06
62978;BME280;49073;42.352;23.808;2023-04-19T10:15:33;94171.56;;;13.65;63.38
62978;BME280;49073;42.352;23.808;2023-04-19T10:18:35;94170.06;;;13.46;64.08
62978;BME280;49073;42.352;23.808;2023-04-19T10:21:36;94153.59;;;13.41;64.65
62978;BME280;49073;42.352;23.808;2023-04-19T10:24:37;94173.09;;;13.34;64.44
62978;BME280;49073;42.352;23.808;2023-04-19T10:27:39;94163.16;;;13.34;64.74
62978;BME280;49073;42.352;23.808;2023-04-19T10:31:00;94168.53;;;13.56;65.38
62978;BME280;49073;42.352;23.808;2023-04-19T10:34:01;94157.03;;;13.63;64.89
62978;BME280;49073;42.352;23.808;2023-04-19T10:37:01;94157.81;;;13.60;62.54
62978;BME280;49073;42.352;23.808;2023-04-19T10:40:06;94158.59;;;13.46;63.13
62978;BME280;49073;42.352;23.808;2023-04-19T10:46:14;94154.75;;;13.07;63.66
62978;BME280;49073;42.352;23.808;2023-04-19T10:49:14;94150.16;;;13.26;65.65
62978;BME280;49073;42.352;23.808;2023-04-19T10:52:42;94149.41;;;13.14;65.04
62978;BME280;49073;42.352;23.808;2023-04-19T10:55:49;94144.44;;;13.16;65.02
62978;BME280;49073;42.352;23.808;2023-04-19T11:02:02;94142.50;;;13.17;65.90
62978;BME280;49073;42.352;23.808;2023-04-19T11:05:03;94132.56;;;13.21;64.57
62978;BME280;49073;42.352;23.808;2023-04-19T11:08:05;94134.09;;;13.40;66.56
62978;BME280;49073;42.352;23.808;2023-04-19T11:11:05;94143.66;;;13.48;63.99
62978;BME280;49073;42.352;23.808;2023-04-19T11:14:06;94144.06;;;13.47;63.90
62978;BME280;49073;42.352;23.808;2023-04-19T11:17:17;94150.53;;;13.71;64.38
62978;BME280;49073;42.352;23.808;2023-04-19T11:20:22;94136.59;;;14.20;63.86
62978;BME280;49073;42.352;23.808;2023-04-19T11:23:23;94142.56;;;14.53;61.23
62978;BME280;49073;42.352;23.808;2023-04-19T11:26:23;94136.03;;;14.54;60.52
62978;BME280;49073;42.352;23.808;2023-04-19T11:29:24;94130.34;;;14.45;59.72
62978;BME280;49073;42.352;23.808;2023-04-19T11:32:24;94129.72;;;14.19;59.81
62978;BME280;49073;42.352;23.808;2023-04-19T11:35:27;94133.19;;;14.08;58.87
62978;BME280;49073;42.352;23.808;2023-04-19T11:38:28;94130.22;;;13.88;60.26
62978;BME280;49073;42.352;23.808;2023-04-19T11:41:28;94130.25;;;13.70;59.83
62978;BME280;49073;42.352;23.808;2023-04-19T11:44:29;94131.78;;;13.67;58.95
62978;BME280;49073;42.352;23.808;2023-04-19T11:47:31;94138.28;;;13.70;59.65
62978;BME280;49073;42.352;23.808;2023-04-19T11:50:39;94138.63;;;13.79;60.72
62978;BME280;49073;42.352;23.808;2023-04-19T11:53:40;94134.03;;;13.80;58.81
62978;BME280;49073;42.352;23.808;2023-04-19T11:56:56;94131.03;;;13.67;58.39
62978;BME280;49073;42.352;23.808;2023-04-19T12:00:05;94135.63;;;13.63;58.93
62978;BME280;49073;42.352;23.808;2023-04-19T12:03:07;94131.03;;;13.60;60.00
62978;BME280;49073;42.352;23.808;2023-04-19T12:06:12;94122.63;;;13.65;59.42
62978;BME280;49073;42.352;23.808;2023-04-19T12:09:19;94131.06;;;13.13;60.52
62978;BME280;49073;42.352;23.808;2023-04-19T12:12:32;94127.25;;;13.03;62.99
62978;BME280;49073;42.352;23.808;2023-04-19T12:15:42;94128.00;;;13.21;61.23
62978;BME280;49073;42.352;23.808;2023-04-19T12:18:48;94124.16;;;13.19;62.33
62978;BME280;49073;42.352;23.808;2023-04-19T12:21:49;94128.38;;;13.23;61.50
62978;BME280;49073;42.352;23.808;2023-04-19T12:24:51;94131.44;;;13.26;61.75
62978;BME280;49073;42.352;23.808;2023-04-19T12:27:52;94127.63;;;13.27;61.35
62978;BME280;49073;42.352;23.808;2023-04-19T12:30:53;94132.97;;;13.12;64.13
62978;BME280;49073;42.352;23.808;2023-04-19T12:33:53;94145.97;;;12.92;67.18
62978;BME280;49073;42.352;23.808;2023-04-19T12:36:54;94136.75;;;12.68;70.30
62978;BME280;49073;42.352;23.808;2023-04-19T12:39:55;94124.81;;;12.18;72.85
62978;BME280;49073;42.352;23.808;2023-04-19T12:42:55;94142.19;;;11.86;78.10
62978;BME280;49073;42.352;23.808;2023-04-19T12:45:56;94136.25;;;11.44;84.70
62978;BME280;49073;42.352;23.808;2023-04-19T12:48:57;94145.56;;;11.16;86.27
62978;BME280;49073;42.352;23.808;2023-04-19T12:51:58;94142.84;;;11.09;87.32
62978;BME280;49073;42.352;23.808;2023-04-19T12:54:59;94140.31;;;11.27;89.11
62978;BME280;49073;42.352;23.808;2023-04-19T12:57:59;94142.09;;;11.68;90.86
62978;BME280;49073;42.352;23.808;2023-04-19T13:01:00;94128.19;;;12.04;88.08
62978;BME280;49073;42.352;23.808;2023-04-19T13:04:01;94133.25;;;12.38;85.06
62978;BME280;49073;42.352;23.808;2023-04-19T13:07:01;94129.50;;;12.64;86.98
62978;BME280;49073;42.352;23.808;2023-04-19T13:10:02;94121.13;;;12.91;86.01
62978;BME280;49073;42.352;23.808;2023-04-19T13:13:03;94121.88;;;12.81;82.55
62978;BME280;49073;42.352;23.808;2023-04-19T13:16:04;94119.19;;;12.95;84.66
62978;BME280;49073;42.352;23.808;2023-04-19T13:19:05;94107.75;;;12.95;83.11
62978;BME280;49073;42.352;23.808;2023-04-19T13:22:05;94113.47;;;13.15;80.53
62978;BME280;49073;42.352;23.808;2023-04-19T13:25:06;94122.25;;;13.16;81.43
62978;BME280;49073;42.352;23.808;2023-04-19T13:28:07;94113.09;;;12.91;77.76
62978;BME280;49073;42.352;23.808;2023-04-19T13:31:07;94116.53;;;12.77;76.72
62978;BME280;49073;42.352;23.808;2023-04-19T13:34:08;94108.50;;;12.66;77.25
62978;BME280;49073;42.352;23.808;2023-04-19T13:37:09;94120.34;;;12.73;77.29
62978;BME280;49073;42.352;23.808;2023-04-19T13:40:10;94113.09;;;12.77;78.90
62978;BME280;49073;42.352;23.808;2023-04-19T13:43:10;94114.63;;;12.82;79.87
62978;BME280;49073;42.352;23.808;2023-04-19T13:46:12;94106.22;;;12.83;78.00
62978;BME280;49073;42.352;23.808;2023-04-19T13:49:13;94114.22;;;12.90;76.61
62978;BME280;49073;42.352;23.808;2023-04-19T13:52:14;94105.84;;;13.06;76.13
62978;BME280;49073;42.352;23.808;2023-04-19T13:55:14;94113.09;;;13.09;73.35
62978;BME280;49073;42.352;23.808;2023-04-19T13:58:15;94113.09;;;13.06;74.77
62978;BME280;49073;42.352;23.808;2023-04-19T14:01:15;94116.94;;;12.98;71.08
62978;BME280;49073;42.352;23.808;2023-04-19T14:04:16;94121.88;;;12.95;72.14
62978;BME280;49073;42.352;23.808;2023-04-19T14:07:16;94116.53;;;12.85;71.40
62978;BME280;49073;42.352;23.808;2023-04-19T14:10:17;94115.41;;;12.86;70.93
62978;BME280;49073;42.352;23.808;2023-04-19T14:13:18;94123.41;;;12.93;70.95
62978;BME280;49073;42.352;23.808;2023-04-19T14:16:19;94112.34;;;12.91;68.69
62978;BME280;49073;42.352;23.808;2023-04-19T14:19:19;94121.88;;;12.95;69.26
62978;BME280;49073;42.352;23.808;2023-04-19T14:22:20;94122.25;;;12.90;69.34
62978;BME280;49073;42.352;23.808;2023-04-19T14:25:21;94114.25;;;12.94;69.40
62978;BME280;49073;42.352;23.808;2023-04-19T14:28:21;94112.31;;;12.87;67.05
62978;BME280;49073;42.352;23.808;2023-04-19T14:31:22;94113.47;;;12.79;67.61
62978;BME280;49073;42.352;23.808;2023-04-19T14:34:22;94124.19;;;12.75;71.18
62978;BME280;49073;42.352;23.808;2023-04-19T14:37:23;94126.38;;;12.33;75.21
62978;BME280;49073;42.352;23.808;2023-04-19T14:40:23;94122.00;;;11.89;77.31
62978;BME280;49073;42.352;23.808;2023-04-19T14:43:25;94128.22;;;11.41;76.42
62978;BME280;49073;42.352;23.808;2023-04-19T14:46:25;94135.78;;;11.31;79.70
62978;BME280;49073;42.352;23.808;2023-04-19T14:49:26;94143.44;;;11.33;80.62
62978;BME280;49073;42.352;23.808;2023-04-19T14:52:26;94134.66;;;11.32;81.66
62978;BME280;49073;42.352;23.808;2023-04-19T14:55:29;94130.50;;;11.39;80.34
62978;BME280;49073;42.352;23.808;2023-04-19T14:58:30;94136.59;;;11.39;80.18
62978;BME280;49073;42.352;23.808;2023-04-19T15:01:31;94141.94;;;11.39;78.37
62978;BME280;49073;42.352;23.808;2023-04-19T15:04:35;94167.44;;;11.33;77.81
62978;BME280;49073;42.352;23.808;2023-04-19T15:07:37;94161.69;;;11.31;77.77
62978;BME280;49073;42.352;23.808;2023-04-19T15:10:37;94175.06;;;11.34;77.96
62978;BME280;49073;42.352;23.808;2023-04-19T15:13:39;94179.53;;;11.19;78.53
62978;BME280;49073;42.352;23.808;2023-04-19T15:16:40;94187.44;;;11.12;78.70
62978;BME280;49073;42.352;23.808;2023-04-19T15:19:40;94199.94;;;11.01;79.39
62978;BME280;49073;42.352;23.808;2023-04-19T15:22:41;94192.16;;;10.85;79.65
62978;BME280;49073;42.352;23.808;2023-04-19T15:25:42;94198.47;;;10.66;79.24
62978;BME280;49073;42.352;23.808;2023-04-19T15:28:43;94205.75;;;10.72;81.03
62978;BME280;49073;42.352;23.808;2023-04-19T15:31:44;94199.28;;;10.70;80.78
62978;BME280;49073;42.352;23.808;2023-04-19T15:34:45;94199.28;;;10.73;79.94
62978;BME280;49073;42.352;23.808;2023-04-19T15:37:46;94205.88;;;10.83;77.92
62978;BME280;49073;42.352;23.808;2023-04-19T15:40:46;94205.19;;;10.94;77.35
62978;BME280;49073;42.352;23.808;2023-04-19T15:43:47;94206.78;;;10.98;77.15
62978;BME280;49073;42.352;23.808;2023-04-19T15:46:47;94209.84;;;11.04;79.68
62978;BME280;49073;42.352;23.808;2023-04-19T15:49:48;94208.03;;;11.15;80.40
62978;BME280;49073;42.352;23.808;2023-04-19T15:52:49;94217.97;;;11.18;80.81
62978;BME280;49073;42.352;23.808;2023-04-19T15:55:49;94200.44;;;11.14;80.14
62978;BME280;49073;42.352;23.808;2023-04-19T15:58:50;94208.09;;;11.19;81.05